sensor_id;sensor_type;location;lat;lon;timestamp;temperature;humidity
8684;DHT22;4379;59.744;18.206;2022-10-12T00:01:37;1.00;99.90
8684;DHT22;4379;59.744;18.206;2022-10-12T00:04:04;1.10;99.90
8684;DHT22;4379;59.744;18.206;2022-10-12T00:06:31;1.00;99.90
8684;DHT22;4379;59.744;18.206;2022-10-12T00:08:58;1.00;99.90
8684;DHT22;4379;59.744;18.206;2022-10-12T00:11:28;0.90;99.90
8684;DHT22;4379;59.744;18.206;2022-10-12T00:13:56;0.90;99.90
8684;DHT22;4379;59.744;18.206;2022-10-12T00:16:24;0.90;99.90
8684;DHT22;4379;59.744;18.206;2022-10-12T00:18:54;0.90;99.90
8684;DHT22;4379;59.744;18.206;2022-10-12T00:21:21;0.80;99.90
8684;DHT22;4379;59.744;18.206;2022-10-12T00:23:49;0.80;99.90
8684;DHT22;4379;59.744;18.206;2022-10-12T00:26:20;0.80;99.90
8684;DHT22;4379;59.744;18.206;2022-10-12T00:28:48;0.70;99.90
8684;DHT22;4379;59.744;18.206;2022-10-12T00:31:20;0.70;99.90
8684;DHT22;4379;59.744;18.206;2022-10-12T00:33:47;0.70;99.90
8684;DHT22;4379;59.744;18.206;2022-10-12T00:38:50;0.50;99.90
8684;DHT22;4379;59.744;18.206;2022-10-12T00:41:19;0.50;99.90
8684;DHT22;4379;59.744;18.206;2022-10-12T00:43:47;0.60;99.90
8684;DHT22;4379;59.744;18.206;2022-10-12T00:46:38;0.50;99.90
8684;DHT22;4379;59.744;18.206;2022-10-12T00:49:17;0.60;99.90
8684;DHT22;4379;59.744;18.206;2022-10-12T00:51:49;0.50;99.90
8684;DHT22;4379;59.744;18.206;2022-10-12T00:54:23;0.50;99.90
8684;DHT22;4379;59.744;18.206;2022-10-12T00:56:53;0.40;99.90
8684;DHT22;4379;59.744;18.206;2022-10-12T00:59:27;0.40;99.90
8684;DHT22;4379;59.744;18.206;2022-10-12T01:01:56;0.40;99.90
8684;DHT22;4379;59.744;18.206;2022-10-12T01:04:23;0.40;99.90
8684;DHT22;4379;59.744;18.206;2022-10-12T01:06:51;0.40;99.90
8684;DHT22;4379;59.744;18.206;2022-10-12T01:09:20;0.40;99.90
8684;DHT22;4379;59.744;18.206;2022-10-12T01:11:47;0.40;99.90
8684;DHT22;4379;59.744;18.206;2022-10-12T01:14:15;0.30;99.90
8684;DHT22;4379;59.744;18.206;2022-10-12T01:17:02;0.20;99.90
8684;DHT22;4379;59.744;18.206;2022-10-12T01:22:23;0.30;99.90
8684;DHT22;4379;59.744;18.206;2022-10-12T01:25:13;0.10;99.90
8684;DHT22;4379;59.744;18.206;2022-10-12T01:27:51;0.10;99.90
8684;DHT22;4379;59.744;18.206;2022-10-12T01:30:24;0.00;99.90
8684;DHT22;4379;59.744;18.206;2022-10-12T01:33:19;0.10;99.90
8684;DHT22;4379;59.744;18.206;2022-10-12T01:38:55;0.00;99.90
8684;DHT22;4379;59.744;18.206;2022-10-12T01:44:08;-0.20;99.90
8684;DHT22;4379;59.744;18.206;2022-10-12T01:46:38;-0.20;99.90
8684;DHT22;4379;59.744;18.206;2022-10-12T01:49:06;-0.10;99.90
8684;DHT22;4379;59.744;18.206;2022-10-12T02:10:54;-0.30;99.90
8684;DHT22;4379;59.744;18.206;2022-10-12T02:13:29;-0.30;99.90
8684;DHT22;4379;59.744;18.206;2022-10-12T02:15:58;-0.40;99.90
8684;DHT22;4379;59.744;18.206;2022-10-12T02:18:28;-0.40;99.90
8684;DHT22;4379;59.744;18.206;2022-10-12T02:20:57;-0.40;99.90
8684;DHT22;4379;59.744;18.206;2022-10-12T02:23:26;-0.40;99.90
8684;DHT22;4379;59.744;18.206;2022-10-12T02:25:55;-0.50;99.90
8684;DHT22;4379;59.744;18.206;2022-10-12T02:28:25;-0.50;99.90
8684;DHT22;4379;59.744;18.206;2022-10-12T02:39:30;-0.60;99.90
8684;DHT22;4379;59.744;18.206;2022-10-12T02:42:08;-0.50;99.90
8684;DHT22;4379;59.744;18.206;2022-10-12T02:44:38;-0.50;99.90
8684;DHT22;4379;59.744;18.206;2022-10-12T02:47:07;-0.60;99.90
8684;DHT22;4379;59.744;18.206;2022-10-12T02:49:37;-0.40;99.90
8684;DHT22;4379;59.744;18.206;2022-10-12T02:52:06;-0.40;99.90
8684;DHT22;4379;59.744;18.206;2022-10-12T02:54:34;-0.50;99.90
8684;DHT22;4379;59.744;18.206;2022-10-12T02:57:01;-0.60;99.90
8684;DHT22;4379;59.744;18.206;2022-10-12T02:59:29;-0.60;99.90
8684;DHT22;4379;59.744;18.206;2022-10-12T03:01:56;-0.70;99.90
8684;DHT22;4379;59.744;18.206;2022-10-12T03:04:23;-0.70;99.90
8684;DHT22;4379;59.744;18.206;2022-10-12T03:06:51;-0.70;99.90
8684;DHT22;4379;59.744;18.206;2022-10-12T03:09:18;-0.70;99.90
8684;DHT22;4379;59.744;18.206;2022-10-12T03:11:48;-0.60;99.90
8684;DHT22;4379;59.744;18.206;2022-10-12T03:14:16;-0.70;99.90
8684;DHT22;4379;59.744;18.206;2022-10-12T03:16:43;-0.60;99.90
8684;DHT22;4379;59.744;18.206;2022-10-12T03:19:13;-0.80;99.90
8684;DHT22;4379;59.744;18.206;2022-10-12T03:21:40;-0.80;99.90
8684;DHT22;4379;59.744;18.206;2022-10-12T03:24:08;-0.80;99.90
8684;DHT22;4379;59.744;18.206;2022-10-12T03:26:35;-0.90;99.90
8684;DHT22;4379;59.744;18.206;2022-10-12T03:29:03;-0.80;99.90
8684;DHT22;4379;59.744;18.206;2022-10-12T03:31:30;-0.80;99.90
8684;DHT22;4379;59.744;18.206;2022-10-12T03:33:57;-0.80;99.90
8684;DHT22;4379;59.744;18.206;2022-10-12T03:36:24;-0.70;99.90
8684;DHT22;4379;59.744;18.206;2022-10-12T03:38:52;-0.80;99.90
8684;DHT22;4379;59.744;18.206;2022-10-12T03:41:19;-0.80;99.90
8684;DHT22;4379;59.744;18.206;2022-10-12T03:43:46;-0.80;99.90
8684;DHT22;4379;59.744;18.206;2022-10-12T03:46:13;-0.80;99.90
8684;DHT22;4379;59.744;18.206;2022-10-12T03:48:40;-0.90;99.90
8684;DHT22;4379;59.744;18.206;2022-10-12T03:51:08;-1.00;99.90
8684;DHT22;4379;59.744;18.206;2022-10-12T03:53:35;-1.00;99.90
8684;DHT22;4379;59.744;18.206;2022-10-12T03:56:06;-1.00;99.90
8684;DHT22;4379;59.744;18.206;2022-10-12T03:58:33;-1.10;99.90
8684;DHT22;4379;59.744;18.206;2022-10-12T04:01:00;-1.10;99.90
8684;DHT22;4379;59.744;18.206;2022-10-12T04:03:28;-1.10;99.90
8684;DHT22;4379;59.744;18.206;2022-10-12T04:05:57;-1.30;99.90
8684;DHT22;4379;59.744;18.206;2022-10-12T04:08:24;-1.20;99.90
8684;DHT22;4379;59.744;18.206;2022-10-12T04:10:52;-1.30;99.90
8684;DHT22;4379;59.744;18.206;2022-10-12T04:13:20;-1.30;99.90
8684;DHT22;4379;59.744;18.206;2022-10-12T04:15:47;-1.30;99.90
8684;DHT22;4379;59.744;18.206;2022-10-12T04:18:15;-1.30;99.90
8684;DHT22;4379;59.744;18.206;2022-10-12T04:20:42;-1.30;99.90
8684;DHT22;4379;59.744;18.206;2022-10-12T04:23:10;-1.30;99.90
8684;DHT22;4379;59.744;18.206;2022-10-12T04:25:37;-1.30;99.90
8684;DHT22;4379;59.744;18.206;2022-10-12T04:28:04;-1.30;99.90
8684;DHT22;4379;59.744;18.206;2022-10-12T04:30:31;-1.30;99.90
8684;DHT22;4379;59.744;18.206;2022-10-12T04:32:59;-1.30;99.90
8684;DHT22;4379;59.744;18.206;2022-10-12T04:35:28;-1.30;99.90
8684;DHT22;4379;59.744;18.206;2022-10-12T04:37:55;-1.20;99.90
8684;DHT22;4379;59.744;18.206;2022-10-12T04:40:23;-1.20;99.90
8684;DHT22;4379;59.744;18.206;2022-10-12T04:42:50;-1.20;99.90
8684;DHT22;4379;59.744;18.206;2022-10-12T04:45:18;-1.40;99.90
8684;DHT22;4379;59.744;18.206;2022-10-12T04:47:45;-1.40;99.90
8684;DHT22;4379;59.744;18.206;2022-10-12T04:50:12;-1.40;99.90
8684;DHT22;4379;59.744;18.206;2022-10-12T04:52:40;-1.50;99.90
8684;DHT22;4379;59.744;18.206;2022-10-12T04:55:07;-1.50;99.90
8684;DHT22;4379;59.744;18.206;2022-10-12T04:57:35;-1.50;99.90
8684;DHT22;4379;59.744;18.206;2022-10-12T05:00:03;-1.40;99.90
8684;DHT22;4379;59.744;18.206;2022-10-12T05:02:30;-1.40;99.90
8684;DHT22;4379;59.744;18.206;2022-10-12T05:04:58;-1.30;99.90
8684;DHT22;4379;59.744;18.206;2022-10-12T05:07:25;-1.30;99.90
8684;DHT22;4379;59.744;18.206;2022-10-12T05:09:52;-1.40;99.90
8684;DHT22;4379;59.744;18.206;2022-10-12T05:12:19;-1.40;99.90
8684;DHT22;4379;59.744;18.206;2022-10-12T05:14:48;-1.50;99.90
8684;DHT22;4379;59.744;18.206;2022-10-12T05:17:15;-1.50;99.90
8684;DHT22;4379;59.744;18.206;2022-10-12T05:19:42;-1.40;99.90
8684;DHT22;4379;59.744;18.206;2022-10-12T05:22:10;-1.50;99.90
8684;DHT22;4379;59.744;18.206;2022-10-12T05:24:37;-1.50;99.90
8684;DHT22;4379;59.744;18.206;2022-10-12T05:27:04;-1.50;99.90
8684;DHT22;4379;59.744;18.206;2022-10-12T05:29:31;-1.60;99.90
8684;DHT22;4379;59.744;18.206;2022-10-12T05:31:58;-1.50;99.90
8684;DHT22;4379;59.744;18.206;2022-10-12T05:34:25;-1.50;99.90
8684;DHT22;4379;59.744;18.206;2022-10-12T05:36:53;-1.40;99.90
8684;DHT22;4379;59.744;18.206;2022-10-12T05:39:20;-1.40;99.90
8684;DHT22;4379;59.744;18.206;2022-10-12T05:41:47;-1.40;99.90
8684;DHT22;4379;59.744;18.206;2022-10-12T05:44:15;-1.40;99.90
8684;DHT22;4379;59.744;18.206;2022-10-12T05:46:42;-1.40;99.90
8684;DHT22;4379;59.744;18.206;2022-10-12T05:49:09;-1.40;99.90
8684;DHT22;4379;59.744;18.206;2022-10-12T05:51:36;-1.40;99.90
8684;DHT22;4379;59.744;18.206;2022-10-12T05:54:05;-1.50;99.90
8684;DHT22;4379;59.744;18.206;2022-10-12T05:56:32;-1.50;99.90
8684;DHT22;4379;59.744;18.206;2022-10-12T05:58:59;-1.40;99.90
8684;DHT22;4379;59.744;18.206;2022-10-12T06:01:27;-1.40;99.90
8684;DHT22;4379;59.744;18.206;2022-10-12T06:03:54;-1.30;99.90
8684;DHT22;4379;59.744;18.206;2022-10-12T06:06:22;-1.30;99.90
8684;DHT22;4379;59.744;18.206;2022-10-12T06:08:50;-1.30;99.90
8684;DHT22;4379;59.744;18.206;2022-10-12T06:11:17;-1.20;99.90
8684;DHT22;4379;59.744;18.206;2022-10-12T06:13:44;-1.20;99.90
8684;DHT22;4379;59.744;18.206;2022-10-12T06:16:11;-1.10;99.90
8684;DHT22;4379;59.744;18.206;2022-10-12T06:18:39;-1.10;99.90
8684;DHT22;4379;59.744;18.206;2022-10-12T06:21:06;-1.10;99.90
8684;DHT22;4379;59.744;18.206;2022-10-12T06:23:53;-1.10;99.90
8684;DHT22;4379;59.744;18.206;2022-10-12T06:26:20;-1.00;99.90
8684;DHT22;4379;59.744;18.206;2022-10-12T06:28:48;-0.90;99.90
8684;DHT22;4379;59.744;18.206;2022-10-12T06:31:15;-0.90;99.90
8684;DHT22;4379;59.744;18.206;2022-10-12T06:33:42;-0.90;99.90
8684;DHT22;4379;59.744;18.206;2022-10-12T06:36:09;-0.90;99.90
8684;DHT22;4379;59.744;18.206;2022-10-12T06:38:37;-0.80;99.90
8684;DHT22;4379;59.744;18.206;2022-10-12T06:41:04;-0.70;99.90
8684;DHT22;4379;59.744;18.206;2022-10-12T06:43:31;-0.50;99.90
8684;DHT22;4379;59.744;18.206;2022-10-12T06:45:59;-0.60;99.90
8684;DHT22;4379;59.744;18.206;2022-10-12T06:48:27;-0.50;99.90
8684;DHT22;4379;59.744;18.206;2022-10-12T06:50:55;-0.50;99.90
8684;DHT22;4379;59.744;18.206;2022-10-12T06:53:22;-0.40;99.90
8684;DHT22;4379;59.744;18.206;2022-10-12T06:55:51;-0.40;99.90
8684;DHT22;4379;59.744;18.206;2022-10-12T06:58:18;-0.40;99.90
8684;DHT22;4379;59.744;18.206;2022-10-12T07:00:45;-0.30;99.90
8684;DHT22;4379;59.744;18.206;2022-10-12T07:03:13;-0.20;99.90
8684;DHT22;4379;59.744;18.206;2022-10-12T07:05:40;0.00;99.90
8684;DHT22;4379;59.744;18.206;2022-10-12T07:08:07;0.10;99.90
8684;DHT22;4379;59.744;18.206;2022-10-12T07:10:35;0.20;99.90
8684;DHT22;4379;59.744;18.206;2022-10-12T07:13:02;0.30;99.90
8684;DHT22;4379;59.744;18.206;2022-10-12T07:15:29;0.30;99.90
8684;DHT22;4379;59.744;18.206;2022-10-12T07:17:56;0.40;99.90
8684;DHT22;4379;59.744;18.206;2022-10-12T07:20:24;0.40;99.90
8684;DHT22;4379;59.744;18.206;2022-10-12T07:22:52;0.60;99.90
8684;DHT22;4379;59.744;18.206;2022-10-12T07:25:19;0.70;99.90
8684;DHT22;4379;59.744;18.206;2022-10-12T07:27:48;0.80;99.90
8684;DHT22;4379;59.744;18.206;2022-10-12T07:30:15;0.90;99.90
8684;DHT22;4379;59.744;18.206;2022-10-12T07:32:43;1.10;99.90
8684;DHT22;4379;59.744;18.206;2022-10-12T07:35:12;1.20;99.90
8684;DHT22;4379;59.744;18.206;2022-10-12T07:37:39;1.40;99.90
8684;DHT22;4379;59.744;18.206;2022-10-12T07:40:08;2.00;99.90
8684;DHT22;4379;59.744;18.206;2022-10-12T07:42:35;2.50;99.90
8684;DHT22;4379;59.744;18.206;2022-10-12T07:45:23;3.40;99.90
8684;DHT22;4379;59.744;18.206;2022-10-12T07:47:50;4.20;99.90
8684;DHT22;4379;59.744;18.206;2022-10-12T07:50:18;4.50;99.90
8684;DHT22;4379;59.744;18.206;2022-10-12T07:52:45;4.50;99.90
8684;DHT22;4379;59.744;18.206;2022-10-12T07:55:12;4.30;99.90
8684;DHT22;4379;59.744;18.206;2022-10-12T07:57:40;4.10;99.90
8684;DHT22;4379;59.744;18.206;2022-10-12T08:00:08;3.70;99.90
8684;DHT22;4379;59.744;18.206;2022-10-12T08:02:35;3.60;99.90
8684;DHT22;4379;59.744;18.206;2022-10-12T08:05:03;3.50;99.90
8684;DHT22;4379;59.744;18.206;2022-10-12T08:07:33;3.50;99.90
8684;DHT22;4379;59.744;18.206;2022-10-12T08:10:00;3.40;99.90
8684;DHT22;4379;59.744;18.206;2022-10-12T08:12:27;3.40;99.90
8684;DHT22;4379;59.744;18.206;2022-10-12T08:14:55;3.40;99.90
8684;DHT22;4379;59.744;18.206;2022-10-12T08:17:22;3.30;99.90
8684;DHT22;4379;59.744;18.206;2022-10-12T08:19:50;3.60;99.90
8684;DHT22;4379;59.744;18.206;2022-10-12T08:22:17;4.20;99.90
8684;DHT22;4379;59.744;18.206;2022-10-12T08:24:44;4.70;99.90
8684;DHT22;4379;59.744;18.206;2022-10-12T08:27:12;5.50;99.90
8684;DHT22;4379;59.744;18.206;2022-10-12T08:29:39;6.30;99.90
8684;DHT22;4379;59.744;18.206;2022-10-12T08:32:07;6.70;99.90
8684;DHT22;4379;59.744;18.206;2022-10-12T08:34:34;6.90;99.90
8684;DHT22;4379;59.744;18.206;2022-10-12T08:37:01;7.20;99.90
8684;DHT22;4379;59.744;18.206;2022-10-12T08:39:29;7.30;99.90
8684;DHT22;4379;59.744;18.206;2022-10-12T08:45:10;7.10;99.90
8684;DHT22;4379;59.744;18.206;2022-10-12T08:47:46;7.00;99.90
8684;DHT22;4379;59.744;18.206;2022-10-12T08:50:28;6.90;99.90
8684;DHT22;4379;59.744;18.206;2022-10-12T08:55:35;6.60;99.90
8684;DHT22;4379;59.744;18.206;2022-10-12T08:58:02;6.90;99.90
8684;DHT22;4379;59.744;18.206;2022-10-12T09:00:32;7.10;99.90
8684;DHT22;4379;59.744;18.206;2022-10-12T09:05:49;7.10;99.90
8684;DHT22;4379;59.744;18.206;2022-10-12T09:08:33;7.10;99.90
8684;DHT22;4379;59.744;18.206;2022-10-12T09:14:11;8.10;99.90
8684;DHT22;4379;59.744;18.206;2022-10-12T09:16:46;8.70;99.90
8684;DHT22;4379;59.744;18.206;2022-10-12T09:19:16;8.60;99.90
8684;DHT22;4379;59.744;18.206;2022-10-12T09:21:46;8.60;99.90
8684;DHT22;4379;59.744;18.206;2022-10-12T09:24:35;8.40;99.90
8684;DHT22;4379;59.744;18.206;2022-10-12T09:27:17;8.00;99.90
8684;DHT22;4379;59.744;18.206;2022-10-12T09:29:54;7.70;99.90
8684;DHT22;4379;59.744;18.206;2022-10-12T09:33:03;7.50;99.90
8684;DHT22;4379;59.744;18.206;2022-10-12T09:35:35;7.20;99.90
8684;DHT22;4379;59.744;18.206;2022-10-12T09:38:02;7.30;99.90
8684;DHT22;4379;59.744;18.206;2022-10-12T09:40:30;7.40;99.90
8684;DHT22;4379;59.744;18.206;2022-10-12T09:43:00;7.40;99.90
8684;DHT22;4379;59.744;18.206;2022-10-12T09:45:33;7.50;99.90
8684;DHT22;4379;59.744;18.206;2022-10-12T09:50:41;7.70;99.90
8684;DHT22;4379;59.744;18.206;2022-10-12T09:53:23;7.60;99.90
8684;DHT22;4379;59.744;18.206;2022-10-12T09:56:00;7.70;99.90
8684;DHT22;4379;59.744;18.206;2022-10-12T09:58:28;7.70;99.90
8684;DHT22;4379;59.744;18.206;2022-10-12T10:01:14;7.70;99.90
8684;DHT22;4379;59.744;18.206;2022-10-12T10:03:47;7.70;99.90
8684;DHT22;4379;59.744;18.206;2022-10-12T10:06:22;7.80;99.90
8684;DHT22;4379;59.744;18.206;2022-10-12T10:08:49;7.90;99.90
8684;DHT22;4379;59.744;18.206;2022-10-12T10:11:26;8.00;99.90
8684;DHT22;4379;59.744;18.206;2022-10-12T10:13:54;8.00;99.90
8684;DHT22;4379;59.744;18.206;2022-10-12T10:16:24;8.00;99.90
8684;DHT22;4379;59.744;18.206;2022-10-12T10:21:35;8.20;99.90
8684;DHT22;4379;59.744;18.206;2022-10-12T10:24:06;8.30;99.90
8684;DHT22;4379;59.744;18.206;2022-10-12T10:26:52;8.30;99.90
8684;DHT22;4379;59.744;18.206;2022-10-12T10:29:31;8.30;99.90
8684;DHT22;4379;59.744;18.206;2022-10-12T10:32:22;8.40;99.90
8684;DHT22;4379;59.744;18.206;2022-10-12T10:37:47;8.60;99.90
8684;DHT22;4379;59.744;18.206;2022-10-12T10:40:24;8.50;99.90
8684;DHT22;4379;59.744;18.206;2022-10-12T10:42:55;8.60;99.90
8684;DHT22;4379;59.744;18.206;2022-10-12T10:45:29;8.80;99.90
8684;DHT22;4379;59.744;18.206;2022-10-12T10:48:08;8.70;99.90
8684;DHT22;4379;59.744;18.206;2022-10-12T10:50:40;8.80;99.90
8684;DHT22;4379;59.744;18.206;2022-10-12T10:53:20;8.90;99.90
8684;DHT22;4379;59.744;18.206;2022-10-12T10:55:55;8.90;99.90
8684;DHT22;4379;59.744;18.206;2022-10-12T10:58:37;8.90;99.90
8684;DHT22;4379;59.744;18.206;2022-10-12T11:06:42;9.00;99.90
8684;DHT22;4379;59.744;18.206;2022-10-12T11:09:23;9.10;99.90
8684;DHT22;4379;59.744;18.206;2022-10-12T11:12:02;9.10;99.90
8684;DHT22;4379;59.744;18.206;2022-10-12T11:14:37;9.20;99.90
8684;DHT22;4379;59.744;18.206;2022-10-12T11:19:50;9.30;99.90
8684;DHT22;4379;59.744;18.206;2022-10-12T11:22:31;9.40;99.90
8684;DHT22;4379;59.744;18.206;2022-10-12T11:27:47;9.50;99.90
8684;DHT22;4379;59.744;18.206;2022-10-12T11:30:22;9.50;99.90
8684;DHT22;4379;59.744;18.206;2022-10-12T11:32:59;9.50;99.90
8684;DHT22;4379;59.744;18.206;2022-10-12T11:35:39;9.70;99.90
8684;DHT22;4379;59.744;18.206;2022-10-12T11:38:26;9.70;99.90
8684;DHT22;4379;59.744;18.206;2022-10-12T11:46:46;10.00;99.90
8684;DHT22;4379;59.744;18.206;2022-10-12T11:49:30;10.10;99.90
8684;DHT22;4379;59.744;18.206;2022-10-12T11:52:02;10.10;99.90
8684;DHT22;4379;59.744;18.206;2022-10-12T11:54:59;10.20;99.90
8684;DHT22;4379;59.744;18.206;2022-10-12T11:57:34;10.20;99.90
8684;DHT22;4379;59.744;18.206;2022-10-12T12:02:54;10.10;99.90
8684;DHT22;4379;59.744;18.206;2022-10-12T12:05:23;10.10;99.90
8684;DHT22;4379;59.744;18.206;2022-10-12T12:07:52;10.20;99.90
8684;DHT22;4379;59.744;18.206;2022-10-12T12:16:06;10.40;99.90
8684;DHT22;4379;59.744;18.206;2022-10-12T12:18:31;10.40;99.90
8684;DHT22;4379;59.744;18.206;2022-10-12T12:21:04;10.50;99.90
8684;DHT22;4379;59.744;18.206;2022-10-12T12:23:49;10.60;99.90
8684;DHT22;4379;59.744;18.206;2022-10-12T12:26:22;10.50;99.90
8684;DHT22;4379;59.744;18.206;2022-10-12T12:29:10;10.50;99.90
8684;DHT22;4379;59.744;18.206;2022-10-12T12:31:42;10.60;99.90
8684;DHT22;4379;59.744;18.206;2022-10-12T12:34:12;10.50;99.90
8684;DHT22;4379;59.744;18.206;2022-10-12T12:36:43;10.50;99.90
8684;DHT22;4379;59.744;18.206;2022-10-12T12:39:23;10.50;99.90
8684;DHT22;4379;59.744;18.206;2022-10-12T12:42:01;10.50;99.90
8684;DHT22;4379;59.744;18.206;2022-10-12T12:44:41;10.60;99.90
8684;DHT22;4379;59.744;18.206;2022-10-12T12:49:59;10.60;99.90
8684;DHT22;4379;59.744;18.206;2022-10-12T12:52:31;10.50;99.90
8684;DHT22;4379;59.744;18.206;2022-10-12T13:01:22;10.40;99.90
8684;DHT22;4379;59.744;18.206;2022-10-12T13:15:44;10.60;99.90
8684;DHT22;4379;59.744;18.206;2022-10-12T13:21:20;10.50;99.90
8684;DHT22;4379;59.744;18.206;2022-10-12T13:23:51;10.40;99.90
8684;DHT22;4379;59.744;18.206;2022-10-12T13:26:22;10.30;99.90
8684;DHT22;4379;59.744;18.206;2022-10-12T13:28:51;10.40;99.90
8684;DHT22;4379;59.744;18.206;2022-10-12T13:31:33;10.40;99.90
8684;DHT22;4379;59.744;18.206;2022-10-12T13:37:10;10.40;99.90
8684;DHT22;4379;59.744;18.206;2022-10-12T13:39:39;10.40;99.90
8684;DHT22;4379;59.744;18.206;2022-10-12T13:42:17;10.10;99.90
8684;DHT22;4379;59.744;18.206;2022-10-12T13:44:47;10.20;99.90
8684;DHT22;4379;59.744;18.206;2022-10-12T13:49:51;10.20;99.90
8684;DHT22;4379;59.744;18.206;2022-10-12T13:52:31;10.00;99.90
8684;DHT22;4379;59.744;18.206;2022-10-12T13:55:00;10.00;99.90
8684;DHT22;4379;59.744;18.206;2022-10-12T14:00:22;9.90;99.90
8684;DHT22;4379;59.744;18.206;2022-10-12T14:03:02;9.90;99.90
8684;DHT22;4379;59.744;18.206;2022-10-12T14:05:31;9.90;99.90
8684;DHT22;4379;59.744;18.206;2022-10-12T14:08:06;9.90;99.90
8684;DHT22;4379;59.744;18.206;2022-10-12T14:10:37;9.70;99.90
8684;DHT22;4379;59.744;18.206;2022-10-12T14:13:06;9.70;99.90
8684;DHT22;4379;59.744;18.206;2022-10-12T14:15:37;9.70;99.90
8684;DHT22;4379;59.744;18.206;2022-10-12T14:21:19;9.70;99.90
8684;DHT22;4379;59.744;18.206;2022-10-12T14:24:09;9.60;99.90
8684;DHT22;4379;59.744;18.206;2022-10-12T14:26:43;9.60;99.90
8684;DHT22;4379;59.744;18.206;2022-10-12T14:29:40;9.50;99.90
8684;DHT22;4379;59.744;18.206;2022-10-12T14:34:46;9.50;99.90
8684;DHT22;4379;59.744;18.206;2022-10-12T14:39:43;9.40;99.90
8684;DHT22;4379;59.744;18.206;2022-10-12T14:42:26;9.30;99.90
8684;DHT22;4379;59.744;18.206;2022-10-12T14:44:53;9.30;99.90
8684;DHT22;4379;59.744;18.206;2022-10-12T14:47:24;9.10;99.90
8684;DHT22;4379;59.744;18.206;2022-10-12T14:49:53;9.10;99.90
8684;DHT22;4379;59.744;18.206;2022-10-12T14:52:37;9.00;99.90
8684;DHT22;4379;59.744;18.206;2022-10-12T14:55:08;8.90;99.90
8684;DHT22;4379;59.744;18.206;2022-10-12T14:57:39;8.80;99.90
8684;DHT22;4379;59.744;18.206;2022-10-12T15:00:07;8.80;99.90
8684;DHT22;4379;59.744;18.206;2022-10-12T15:02:35;8.60;99.90
8684;DHT22;4379;59.744;18.206;2022-10-12T15:05:05;8.50;99.90
8684;DHT22;4379;59.744;18.206;2022-10-12T15:07:33;8.40;99.90
8684;DHT22;4379;59.744;18.206;2022-10-12T15:10:00;8.40;99.90
8684;DHT22;4379;59.744;18.206;2022-10-12T15:12:28;8.30;99.90
8684;DHT22;4379;59.744;18.206;2022-10-12T15:15:00;8.20;99.90
8684;DHT22;4379;59.744;18.206;2022-10-12T15:17:27;8.10;99.90
8684;DHT22;4379;59.744;18.206;2022-10-12T15:19:57;8.00;99.90
8684;DHT22;4379;59.744;18.206;2022-10-12T15:22:25;7.90;99.90
8684;DHT22;4379;59.744;18.206;2022-10-12T15:24:53;7.80;99.90
8684;DHT22;4379;59.744;18.206;2022-10-12T15:27:21;7.70;99.90
8684;DHT22;4379;59.744;18.206;2022-10-12T15:29:48;7.70;99.90
8684;DHT22;4379;59.744;18.206;2022-10-12T15:32:17;7.60;99.90
8684;DHT22;4379;59.744;18.206;2022-10-12T15:34:45;7.60;99.90
8684;DHT22;4379;59.744;18.206;2022-10-12T15:37:12;7.40;99.90
8684;DHT22;4379;59.744;18.206;2022-10-12T15:39:40;7.30;99.90
8684;DHT22;4379;59.744;18.206;2022-10-12T15:42:10;7.10;99.90
8684;DHT22;4379;59.744;18.206;2022-10-12T15:44:39;7.00;99.90
8684;DHT22;4379;59.744;18.206;2022-10-12T15:47:08;6.80;99.90
8684;DHT22;4379;59.744;18.206;2022-10-12T15:49:37;6.60;99.90
8684;DHT22;4379;59.744;18.206;2022-10-12T15:52:05;6.50;99.90
8684;DHT22;4379;59.744;18.206;2022-10-12T15:54:36;6.40;99.90
8684;DHT22;4379;59.744;18.206;2022-10-12T15:57:05;6.20;99.90
8684;DHT22;4379;59.744;18.206;2022-10-12T15:59:32;6.10;99.90
8684;DHT22;4379;59.744;18.206;2022-10-12T16:01:59;5.90;99.90
8684;DHT22;4379;59.744;18.206;2022-10-12T16:04:26;5.80;99.90
8684;DHT22;4379;59.744;18.206;2022-10-12T16:06:54;5.60;99.90
8684;DHT22;4379;59.744;18.206;2022-10-12T16:09:24;5.50;99.90
8684;DHT22;4379;59.744;18.206;2022-10-12T16:11:51;5.20;99.90
8684;DHT22;4379;59.744;18.206;2022-10-12T16:14:18;5.20;99.90
8684;DHT22;4379;59.744;18.206;2022-10-12T16:16:46;5.10;99.90
8684;DHT22;4379;59.744;18.206;2022-10-12T16:19:13;4.90;99.90
8684;DHT22;4379;59.744;18.206;2022-10-12T16:21:41;4.80;99.90
8684;DHT22;4379;59.744;18.206;2022-10-12T16:24:08;4.70;99.90
8684;DHT22;4379;59.744;18.206;2022-10-12T16:26:35;4.60;99.90
8684;DHT22;4379;59.744;18.206;2022-10-12T16:29:10;4.40;99.90
8684;DHT22;4379;59.744;18.206;2022-10-12T16:31:37;4.30;99.90
8684;DHT22;4379;59.744;18.206;2022-10-12T16:34:04;4.20;99.90
8684;DHT22;4379;59.744;18.206;2022-10-12T16:36:32;4.00;99.90
8684;DHT22;4379;59.744;18.206;2022-10-12T16:38:59;3.90;99.90
8684;DHT22;4379;59.744;18.206;2022-10-12T16:41:27;3.80;99.90
8684;DHT22;4379;59.744;18.206;2022-10-12T16:43:59;3.70;99.90
8684;DHT22;4379;59.744;18.206;2022-10-12T16:46:27;3.70;99.90
8684;DHT22;4379;59.744;18.206;2022-10-12T16:48:56;3.50;99.90
8684;DHT22;4379;59.744;18.206;2022-10-12T16:51:23;3.40;99.90
8684;DHT22;4379;59.744;18.206;2022-10-12T16:53:50;3.40;99.90
8684;DHT22;4379;59.744;18.206;2022-10-12T16:56:17;3.30;99.90
8684;DHT22;4379;59.744;18.206;2022-10-12T16:58:45;3.30;99.90
8684;DHT22;4379;59.744;18.206;2022-10-12T17:01:13;3.30;99.90
8684;DHT22;4379;59.744;18.206;2022-10-12T17:03:40;3.10;99.90
8684;DHT22;4379;59.744;18.206;2022-10-12T17:06:08;3.10;99.90
8684;DHT22;4379;59.744;18.206;2022-10-12T17:08:37;3.10;99.90
8684;DHT22;4379;59.744;18.206;2022-10-12T17:11:10;3.00;99.90
8684;DHT22;4379;59.744;18.206;2022-10-12T17:13:40;2.90;99.90
8684;DHT22;4379;59.744;18.206;2022-10-12T17:16:14;2.90;99.90
8684;DHT22;4379;59.744;18.206;2022-10-12T17:19:00;2.70;99.90
8684;DHT22;4379;59.744;18.206;2022-10-12T17:21:27;2.80;99.90
8684;DHT22;4379;59.744;18.206;2022-10-12T17:23:56;2.80;99.90
8684;DHT22;4379;59.744;18.206;2022-10-12T17:26:24;2.70;99.90
8684;DHT22;4379;59.744;18.206;2022-10-12T17:28:51;2.80;99.90
8684;DHT22;4379;59.744;18.206;2022-10-12T17:31:19;2.70;99.90
8684;DHT22;4379;59.744;18.206;2022-10-12T17:33:46;2.70;99.90
8684;DHT22;4379;59.744;18.206;2022-10-12T17:36:15;2.60;99.90
8684;DHT22;4379;59.744;18.206;2022-10-12T17:38:42;2.50;99.90
8684;DHT22;4379;59.744;18.206;2022-10-12T17:41:09;2.60;99.90
8684;DHT22;4379;59.744;18.206;2022-10-12T17:43:37;2.70;99.90
8684;DHT22;4379;59.744;18.206;2022-10-12T17:46:05;2.60;99.90
8684;DHT22;4379;59.744;18.206;2022-10-12T17:48:32;2.60;99.90
8684;DHT22;4379;59.744;18.206;2022-10-12T17:51:07;2.50;99.90
8684;DHT22;4379;59.744;18.206;2022-10-12T17:53:35;2.50;99.90
8684;DHT22;4379;59.744;18.206;2022-10-12T17:56:04;2.60;99.90
8684;DHT22;4379;59.744;18.206;2022-10-12T17:58:33;2.60;99.90
8684;DHT22;4379;59.744;18.206;2022-10-12T18:01:07;2.50;99.90
8684;DHT22;4379;59.744;18.206;2022-10-12T18:03:35;2.50;99.90
8684;DHT22;4379;59.744;18.206;2022-10-12T18:06:07;2.40;99.90
8684;DHT22;4379;59.744;18.206;2022-10-12T18:08:34;2.40;99.90
8684;DHT22;4379;59.744;18.206;2022-10-12T18:11:03;2.40;99.90
8684;DHT22;4379;59.744;18.206;2022-10-12T18:13:32;2.40;99.90
8684;DHT22;4379;59.744;18.206;2022-10-12T18:16:00;2.40;99.90
8684;DHT22;4379;59.744;18.206;2022-10-12T18:18:27;2.40;99.90
8684;DHT22;4379;59.744;18.206;2022-10-12T18:20:55;2.40;99.90